createdAt,value
2017-06-28T00:01:23.350Z,56.67
2017-06-28T00:03:51.992Z,57.50
2017-06-28T00:06:20.339Z,57.20
2017-06-28T00:08:48.659Z,57.99
2017-06-28T00:11:17.545Z,57.77
2017-06-28T00:13:46.676Z,57.77
2017-06-28T00:16:15.027Z,57.60
2017-06-28T00:18:43.684Z,57.59
2017-06-28T00:21:12.019Z,57.73
2017-06-28T00:23:40.338Z,57.63
2017-06-28T00:26:09.147Z,57.49
2017-06-28T00:28:37.485Z,57.60
2017-06-28T00:31:05.826Z,57.51
2017-06-28T00:33:34.440Z,58.02
2017-06-28T00:36:02.770Z,57.20
2017-06-28T00:38:31.108Z,57.65
2017-06-28T00:40:59.921Z,57.68
2017-06-28T00:43:28.246Z,57.36
2017-06-28T00:45:56.601Z,57.67
2017-06-28T00:48:25.510Z,57.35
2017-06-28T00:50:53.829Z,57.25
2017-06-28T00:53:22.170Z,57.19
2017-06-28T00:55:50.815Z,57.10
2017-06-28T00:58:19.145Z,57.75
2017-06-28T01:00:47.470Z,57.10
2017-06-28T01:03:16.173Z,57.92
2017-06-28T01:05:44.549Z,57.82
2017-06-28T01:08:13.662Z,58.45
2017-06-28T01:10:42.319Z,58.07
2017-06-28T01:13:10.652Z,59.15
2017-06-28T01:15:38.978Z,59.00
2017-06-28T01:18:07.870Z,58.62
2017-06-28T01:20:36.212Z,58.68
2017-06-28T01:23:04.568Z,58.29
2017-06-28T01:25:33.380Z,58.38
2017-06-28T01:28:01.721Z,58.00
2017-06-28T01:30:30.053Z,58.49
2017-06-28T01:32:58.808Z,59.05
2017-06-28T01:35:27.150Z,58.81
2017-06-28T01:37:56.242Z,58.49
2017-06-28T01:40:25.860Z,58.42
2017-06-28T01:42:54.193Z,58.01
2017-06-28T01:45:22.526Z,59.13
2017-06-28T01:47:51.208Z,58.47
2017-06-28T01:50:19.554Z,59.98
2017-06-28T01:52:47.894Z,59.70
2017-06-28T01:55:16.761Z,59.36
2017-06-28T01:57:45.083Z,59.17
2017-06-28T02:00:13.410Z,58.96
2017-06-28T02:02:42.847Z,59.36
2017-06-28T02:05:11.175Z,58.76
2017-06-28T02:07:39.519Z,58.88
2017-06-28T02:10:08.175Z,59.05
2017-06-28T02:12:36.512Z,59.71
2017-06-28T02:15:04.850Z,60.05
2017-06-28T02:17:34.048Z,59.84
2017-06-28T02:20:02.421Z,60.55
2017-06-28T02:22:30.747Z,60.88
2017-06-28T02:24:59.573Z,59.79
2017-06-28T02:27:27.915Z,60.12
2017-06-28T02:29:56.269Z,59.96
2017-06-28T02:32:24.964Z,60.13
2017-06-28T02:34:53.317Z,60.71
2017-06-28T02:37:21.670Z,60.18
2017-06-28T02:39:50.368Z,60.27
2017-06-28T02:42:18.707Z,60.26
2017-06-28T02:44:47.046Z,60.14
2017-06-28T02:47:15.895Z,60.06
2017-06-28T02:49:44.252Z,60.26
2017-06-28T02:52:12.574Z,60.42
2017-06-28T02:54:41.745Z,60.87
2017-06-28T02:57:10.059Z,61.08
2017-06-28T02:59:38.397Z,60.86
2017-06-28T03:02:08.236Z,60.48
2017-06-28T03:04:36.568Z,61.27
2017-06-28T03:07:22.995Z,61.55
2017-06-28T03:09:51.333Z,61.73
2017-06-28T03:12:19.654Z,61.29
2017-06-28T03:14:48.314Z,61.74
2017-06-28T03:17:16.650Z,63.08
2017-06-28T03:19:44.989Z,63.73
2017-06-28T03:22:13.923Z,63.57
2017-06-28T03:24:42.269Z,63.56
2017-06-28T03:27:10.603Z,63.68
2017-06-28T03:29:39.955Z,62.95
2017-06-28T03:32:08.273Z,63.08
2017-06-28T03:34:36.595Z,63.11
2017-06-28T03:37:06.057Z,63.54
2017-06-28T03:39:34.409Z,63.81
2017-06-28T03:42:03.005Z,64.04
2017-06-28T03:44:31.622Z,64.05
2017-06-28T03:47:00.009Z,63.36
2017-06-28T03:49:28.350Z,64.42
2017-06-28T03:51:57.311Z,64.10
2017-06-28T03:54:25.658Z,63.74
2017-06-28T03:56:53.992Z,63.91
2017-06-28T03:59:22.718Z,63.60
2017-06-28T04:01:51.053Z,62.42
2017-06-28T04:04:19.636Z,63.27
2017-06-28T04:06:48.403Z,63.37
2017-06-28T04:09:16.739Z,63.07
2017-06-28T04:11:45.083Z,62.61
2017-06-28T04:14:13.834Z,62.15
2017-06-28T04:16:42.198Z,62.30
2017-06-28T04:19:10.563Z,62.98
2017-06-28T04:21:39.198Z,62.80
2017-06-28T04:24:07.702Z,62.97
2017-06-28T04:26:36.026Z,62.03
2017-06-28T04:29:04.963Z,62.61
2017-06-28T04:31:33.281Z,62.42
2017-06-28T04:34:01.630Z,62.51
2017-06-28T04:36:30.585Z,61.47
2017-06-28T04:38:58.918Z,61.83
2017-06-28T04:41:27.250Z,61.54
2017-06-28T04:43:56.028Z,62.20
2017-06-28T04:46:24.356Z,63.04
2017-06-28T04:48:52.703Z,64.45
2017-06-28T04:51:21.718Z,64.00
2017-06-28T04:53:50.041Z,62.90
2017-06-28T04:56:18.388Z,62.45
2017-06-28T04:58:47.543Z,63.31
2017-06-28T05:01:15.885Z,63.74
2017-06-28T05:03:44.216Z,63.57
2017-06-28T05:06:12.979Z,63.46
2017-06-28T05:08:41.324Z,63.35
2017-06-28T05:11:09.734Z,63.36
2017-06-28T05:13:38.390Z,63.01
2017-06-28T05:16:06.726Z,62.71
2017-06-28T05:18:35.061Z,61.50
2017-06-28T05:21:04.083Z,60.30
2017-06-28T05:23:32.406Z,60.70
2017-06-28T05:26:00.761Z,61.02
2017-06-28T05:28:29.443Z,62.36
2017-06-28T05:30:57.802Z,62.31
2017-06-28T05:33:26.125Z,62.40
2017-06-28T05:35:54.756Z,64.54
2017-06-28T05:38:23.087Z,63.51
2017-06-28T05:40:51.435Z,62.27
2017-06-28T05:43:20.171Z,61.01
2017-06-28T05:45:48.537Z,60.47
2017-06-28T05:48:16.890Z,60.81
2017-06-28T05:50:45.564Z,60.18
2017-06-28T05:53:13.894Z,60.40
2017-06-28T05:55:42.234Z,60.15
2017-06-28T05:58:11.116Z,60.12
2017-06-28T06:00:39.462Z,58.92
2017-06-28T06:03:07.824Z,58.71
2017-06-28T06:05:36.793Z,57.54
2017-06-28T06:08:05.147Z,57.11
2017-06-28T06:10:33.495Z,58.84
2017-06-28T06:13:02.202Z,57.26
2017-06-28T06:15:30.546Z,56.67
2017-06-28T06:17:58.883Z,55.87
2017-06-28T06:20:27.572Z,55.49
2017-06-28T06:22:55.905Z,55.95
2017-06-28T06:25:24.230Z,56.05
2017-06-28T06:27:53.028Z,55.66
2017-06-28T06:30:21.377Z,55.42
2017-06-28T06:32:49.725Z,55.35
2017-06-28T06:35:19.158Z,55.04
2017-06-28T06:37:47.690Z,54.35
2017-06-28T06:40:16.037Z,55.12
2017-06-28T06:42:44.742Z,54.60
2017-06-28T06:45:13.065Z,53.35
2017-06-28T06:47:41.519Z,53.34
2017-06-28T06:50:10.566Z,52.78
2017-06-28T06:52:38.919Z,53.14
2017-06-28T06:55:07.281Z,53.09
2017-06-28T06:57:36.138Z,52.11
2017-06-28T07:00:04.500Z,50.93
2017-06-28T07:02:32.840Z,50.11
2017-06-28T07:05:01.830Z,50.91
2017-06-28T07:07:32.163Z,50.82
2017-06-28T07:10:00.493Z,49.99
2017-06-28T07:12:29.259Z,49.56
2017-06-28T07:14:57.648Z,49.86
2017-06-28T07:17:25.976Z,49.54
2017-06-28T07:19:54.866Z,50.96
2017-06-28T07:22:23.239Z,51.26
2017-06-28T07:24:51.714Z,50.42
2017-06-28T07:27:20.461Z,50.66
2017-06-28T07:29:48.835Z,50.04
2017-06-28T07:32:17.226Z,50.24
2017-06-28T07:34:46.193Z,49.91
2017-06-28T07:37:14.554Z,48.84
2017-06-28T07:39:42.892Z,48.61
2017-06-28T07:42:11.655Z,48.52
2017-06-28T07:44:39.991Z,48.96
2017-06-28T07:47:08.370Z,49.59
2017-06-28T07:49:37.163Z,48.96
2017-06-28T07:52:05.546Z,48.95
2017-06-28T07:54:33.927Z,48.87
2017-06-28T07:57:03.874Z,47.35
2017-06-28T07:59:32.294Z,47.59
2017-06-28T08:02:00.729Z,47.23
2017-06-28T08:04:29.425Z,47.51
2017-06-28T08:06:57.836Z,47.22
2017-06-28T08:09:26.557Z,46.82
2017-06-28T08:11:55.502Z,46.28
2017-06-28T08:14:23.833Z,46.07
2017-06-28T08:16:52.958Z,45.21
2017-06-28T08:19:21.911Z,44.14
2017-06-28T08:21:50.263Z,43.13
2017-06-28T08:24:18.630Z,43.18
2017-06-28T08:26:47.355Z,44.00
2017-06-28T08:29:15.719Z,44.78
2017-06-28T08:31:44.070Z,44.09
2017-06-28T08:34:12.861Z,44.17
2017-06-28T08:36:41.280Z,43.53
2017-06-28T08:39:09.712Z,43.41
2017-06-28T08:41:38.722Z,43.50
2017-06-28T08:44:07.136Z,44.64
2017-06-28T08:46:35.514Z,43.30
2017-06-28T08:49:04.174Z,42.89
2017-06-28T08:51:32.730Z,43.68
2017-06-28T08:54:01.073Z,42.05
2017-06-28T08:56:30.021Z,40.88
2017-06-28T08:58:58.415Z,41.33
2017-06-28T09:01:26.923Z,40.92
2017-06-28T09:03:55.962Z,40.94
2017-06-28T09:06:24.662Z,39.51
2017-06-28T09:08:53.258Z,39.47
2017-06-28T09:11:22.226Z,40.80
2017-06-28T09:13:50.604Z,40.67
2017-06-28T09:16:18.957Z,40.41
2017-06-28T09:18:47.633Z,40.02
2017-06-28T09:21:16.047Z,39.32
2017-06-28T09:23:44.499Z,40.50
2017-06-28T09:26:13.652Z,41.26
2017-06-28T09:28:42.055Z,40.33
2017-06-28T09:31:10.376Z,39.43
2017-06-28T09:33:38.993Z,39.14
2017-06-28T09:36:07.336Z,38.28
2017-06-28T09:38:35.783Z,38.41
2017-06-28T09:41:04.748Z,39.65
2017-06-28T09:43:33.134Z,39.23
2017-06-28T09:46:01.530Z,39.95
2017-06-28T09:48:30.388Z,39.71
2017-06-28T09:50:58.717Z,40.71
2017-06-28T09:53:27.823Z,39.43
2017-06-28T09:55:57.307Z,39.52
2017-06-28T09:58:25.656Z,40.37
2017-06-28T10:00:54.027Z,40.94
2017-06-28T10:03:22.676Z,40.45
2017-06-28T10:05:51.026Z,39.91
2017-06-28T10:08:19.366Z,39.70
2017-06-28T10:10:48.116Z,40.34
2017-06-28T10:13:17.623Z,41.24
2017-06-28T10:15:45.966Z,41.09
2017-06-28T10:18:14.794Z,39.91
2017-06-28T10:20:43.256Z,40.12
2017-06-28T10:23:11.628Z,39.98
2017-06-28T10:25:40.457Z,41.37
2017-06-28T10:28:08.902Z,41.24
2017-06-28T10:30:37.302Z,41.91
2017-06-28T10:33:06.348Z,40.85
2017-06-28T10:35:34.860Z,39.12
2017-06-28T10:38:03.247Z,39.00
2017-06-28T10:40:31.947Z,38.36
2017-06-28T10:43:00.285Z,38.50
2017-06-28T10:45:28.634Z,39.38
2017-06-28T10:47:57.629Z,39.04
2017-06-28T10:50:25.965Z,39.14
2017-06-28T10:52:55.062Z,39.65
2017-06-28T10:55:23.990Z,41.06
2017-06-28T10:57:52.377Z,41.26
2017-06-28T11:00:20.807Z,41.80
2017-06-28T11:02:49.719Z,41.68
2017-06-28T11:05:18.055Z,40.83
2017-06-28T11:07:46.469Z,40.14
2017-06-28T11:10:15.168Z,39.57
2017-06-28T11:12:43.506Z,38.68
2017-06-28T11:15:11.998Z,38.27
2017-06-28T11:17:41.074Z,38.78
2017-06-28T11:20:09.577Z,39.21
2017-06-28T11:22:37.899Z,38.88
2017-06-28T11:25:06.650Z,38.67
2017-06-28T11:27:35.058Z,39.90
2017-06-28T11:30:03.502Z,38.64
2017-06-28T11:32:32.252Z,36.99
2017-06-28T11:35:00.677Z,35.97
2017-06-28T11:37:29.051Z,36.35
2017-06-28T11:39:57.824Z,38.04
2017-06-28T11:42:26.204Z,37.86
2017-06-28T11:44:54.604Z,37.81
2017-06-28T11:47:23.259Z,37.09
2017-06-28T11:49:51.606Z,36.38
2017-06-28T11:52:20.004Z,37.30
2017-06-28T11:54:48.898Z,38.51
2017-06-28T11:57:17.277Z,38.96
2017-06-28T11:59:45.616Z,38.80
2017-06-28T12:02:14.323Z,39.67
2017-06-28T12:04:42.661Z,38.61
2017-06-28T12:07:11.773Z,37.75
2017-06-28T12:09:41.129Z,36.17
2017-06-28T12:12:09.470Z,37.18
2017-06-28T12:14:37.801Z,38.48
2017-06-28T12:17:06.425Z,40.45
2017-06-28T12:19:34.783Z,39.74
2017-06-28T12:22:03.102Z,38.84
2017-06-28T12:24:32.083Z,39.22
2017-06-28T12:27:00.400Z,38.90
2017-06-28T12:29:28.737Z,39.02
2017-06-28T12:31:57.507Z,39.52
2017-06-28T12:34:25.853Z,40.13
2017-06-28T12:36:54.191Z,41.31
2017-06-28T12:39:22.847Z,40.80
2017-06-28T12:41:51.938Z,41.61
2017-06-28T12:44:20.274Z,41.31
2017-06-28T12:46:49.123Z,40.62
2017-06-28T12:49:17.476Z,41.20
2017-06-28T12:51:45.824Z,40.96
2017-06-28T12:54:14.723Z,40.48
2017-06-28T12:56:43.062Z,39.26
2017-06-28T12:59:11.386Z,38.63
2017-06-28T13:01:40.017Z,38.08
2017-06-28T13:04:08.584Z,39.33
2017-06-28T13:06:36.962Z,41.09
2017-06-28T13:09:06.452Z,42.42
2017-06-28T13:11:34.789Z,42.74
2017-06-28T13:14:03.159Z,42.49
2017-06-28T13:16:31.804Z,42.88
2017-06-28T13:19:00.595Z,44.10
2017-06-28T13:21:28.930Z,44.04
2017-06-28T13:23:57.591Z,43.68
2017-06-28T13:26:25.949Z,43.11
2017-06-28T13:28:54.323Z,43.76
2017-06-28T13:31:23.864Z,44.71
2017-06-28T13:33:52.201Z,46.15
2017-06-28T13:36:20.535Z,45.99
2017-06-28T13:38:49.182Z,47.28
2017-06-28T13:41:17.518Z,48.04
2017-06-28T13:43:45.843Z,47.89
2017-06-28T13:46:15.323Z,47.76
2017-06-28T13:48:43.709Z,47.71
2017-06-28T13:51:12.060Z,47.51
2017-06-28T13:53:41.151Z,47.33
2017-06-28T13:56:09.520Z,47.80
2017-06-28T13:58:37.935Z,49.21
2017-06-28T14:01:06.829Z,50.70
2017-06-28T14:03:35.200Z,51.67
2017-06-28T14:06:03.517Z,53.17
2017-06-28T14:08:32.274Z,57.66
2017-06-28T14:11:00.675Z,60.29
2017-06-28T14:13:29.053Z,64.42
2017-06-28T14:15:58.047Z,65.99
2017-06-28T14:18:26.433Z,67.64
2017-06-28T14:20:56.041Z,67.77
2017-06-28T14:23:24.722Z,67.42
2017-06-28T14:25:53.187Z,68.51
2017-06-28T14:28:21.635Z,68.90
2017-06-28T14:30:50.310Z,70.12
2017-06-28T14:33:18.660Z,70.57
2017-06-28T14:35:47.013Z,73.20
2017-06-28T14:38:16.511Z,74.55
2017-06-28T14:40:44.875Z,74.21
2017-06-28T14:43:13.255Z,73.20
2017-06-28T14:45:42.023Z,73.55
2017-06-28T14:48:10.544Z,73.29
2017-06-28T14:50:39.026Z,75.08
2017-06-28T14:53:07.814Z,75.85
2017-06-28T14:55:36.182Z,74.18
2017-06-28T14:58:04.561Z,73.53
2017-06-28T15:00:33.563Z,73.10
2017-06-28T15:03:01.967Z,71.58
2017-06-28T15:05:31.137Z,71.86
2017-06-28T15:07:59.873Z,72.85
2017-06-28T15:10:28.213Z,72.36
2017-06-28T15:12:56.694Z,73.06
2017-06-28T15:15:25.583Z,72.03
2017-06-28T15:17:53.961Z,71.60
2017-06-28T15:20:22.442Z,69.60
2017-06-28T15:22:51.403Z,68.89
2017-06-28T15:25:19.823Z,70.80
2017-06-28T15:27:48.180Z,70.22
2017-06-28T15:30:16.843Z,69.50
2017-06-28T15:32:45.209Z,71.45
2017-06-28T15:35:13.560Z,72.15
2017-06-28T15:37:42.474Z,71.52
2017-06-28T15:40:10.799Z,73.04
2017-06-28T15:42:39.143Z,74.06
2017-06-28T15:45:08.015Z,73.83
2017-06-28T15:47:36.366Z,73.88
2017-06-28T15:50:04.728Z,74.22
2017-06-28T15:52:33.587Z,73.61
2017-06-28T15:55:01.935Z,74.23
2017-06-28T15:57:30.285Z,74.05
2017-06-28T15:59:58.993Z,73.72
2017-06-28T16:02:27.338Z,73.09
2017-06-28T16:04:55.701Z,73.25
2017-06-28T16:07:24.859Z,73.14
2017-06-28T16:09:53.190Z,72.62
2017-06-28T16:12:21.574Z,73.48
2017-06-28T16:14:50.231Z,74.28
2017-06-28T16:17:18.561Z,73.09
2017-06-28T16:19:46.901Z,73.09
2017-06-28T16:22:15.612Z,72.90
2017-06-28T16:24:43.940Z,72.80
2017-06-28T16:27:12.312Z,72.16
2017-06-28T16:29:41.802Z,72.87
2017-06-28T16:32:10.135Z,72.93
2017-06-28T16:34:38.476Z,71.77
2017-06-28T16:37:07.149Z,72.28
2017-06-28T16:39:35.512Z,72.46
2017-06-28T16:42:03.848Z,73.58
2017-06-28T16:44:32.713Z,74.00
2017-06-28T16:47:01.050Z,72.78
2017-06-28T16:49:29.390Z,72.73
2017-06-28T16:51:58.353Z,72.46
2017-06-28T16:54:26.721Z,71.50
2017-06-28T16:56:55.085Z,72.29
2017-06-28T16:59:23.829Z,72.22
2017-06-28T17:01:52.174Z,71.73
2017-06-28T17:04:20.505Z,72.12
2017-06-28T17:06:49.459Z,73.19
2017-06-28T17:09:17.803Z,71.96
2017-06-28T17:11:46.142Z,71.15
2017-06-28T17:14:15.323Z,71.72
2017-06-28T17:16:43.692Z,71.12
2017-06-28T17:19:12.030Z,70.67
2017-06-28T17:21:40.881Z,70.57
2017-06-28T17:24:09.237Z,69.54
2017-06-28T17:26:37.565Z,69.54
2017-06-28T17:29:06.403Z,69.32
2017-06-28T17:31:34.761Z,70.04
2017-06-28T17:34:03.875Z,70.10
2017-06-28T17:36:32.842Z,71.15
2017-06-28T17:39:01.181Z,71.43
2017-06-28T17:41:29.510Z,70.69
2017-06-28T17:43:58.934Z,69.01
2017-06-28T17:46:27.310Z,68.31
2017-06-28T17:48:55.680Z,67.78
2017-06-28T17:51:24.363Z,66.19
2017-06-28T17:53:52.705Z,65.26
2017-06-28T17:56:21.070Z,65.85
2017-06-28T17:58:50.028Z,66.38
2017-06-28T18:01:18.374Z,65.87
2017-06-28T18:03:47.478Z,67.21
2017-06-28T18:06:16.151Z,70.01
2017-06-28T18:08:44.495Z,70.39
2017-06-28T18:11:12.827Z,69.99
2017-06-28T18:13:41.742Z,69.42
2017-06-28T18:16:10.080Z,69.88
2017-06-28T18:18:38.430Z,70.94
2017-06-28T18:21:07.445Z,71.24
2017-06-28T18:23:35.791Z,71.57
2017-06-28T18:26:04.138Z,72.50
2017-06-28T18:28:32.819Z,71.80
2017-06-28T18:31:01.178Z,71.06
2017-06-28T18:33:30.302Z,72.03
2017-06-28T18:35:58.980Z,72.07
2017-06-28T18:38:28.079Z,72.28
2017-06-28T18:40:56.420Z,72.30
2017-06-28T18:43:25.177Z,72.59
2017-06-28T18:45:53.504Z,72.63
2017-06-28T18:48:22.614Z,72.39
2017-06-28T18:50:51.432Z,72.69
2017-06-28T18:53:19.760Z,72.97
2017-06-28T18:55:48.904Z,72.73
2017-06-28T18:58:17.679Z,73.30
2017-06-28T19:00:46.023Z,73.76
2017-06-28T19:03:14.367Z,73.87
2017-06-28T19:05:43.533Z,73.52
2017-06-28T19:08:11.884Z,73.71
2017-06-28T19:10:40.316Z,72.99
2017-06-28T19:13:08.957Z,72.46
2017-06-28T19:15:37.312Z,72.61
2017-06-28T19:18:05.669Z,73.71
2017-06-28T19:20:34.425Z,74.13
2017-06-28T19:23:02.756Z,73.48
2017-06-28T19:25:31.124Z,73.70
2017-06-28T19:28:00.062Z,73.74
2017-06-28T19:30:28.421Z,73.72
2017-06-28T19:32:57.519Z,73.32
2017-06-28T19:35:26.331Z,73.71
2017-06-28T19:37:54.652Z,73.63
2017-06-28T19:40:22.996Z,73.29
2017-06-28T19:42:51.704Z,73.51
2017-06-28T19:45:20.037Z,73.43
2017-06-28T19:47:48.353Z,73.19
2017-06-28T19:50:17.426Z,73.75
2017-06-28T19:52:45.792Z,74.27
2017-06-28T19:55:14.906Z,74.00
2017-06-28T19:57:43.658Z,73.15
2017-06-28T20:00:11.992Z,73.41
2017-06-28T20:02:40.340Z,73.33
2017-06-28T20:05:09.957Z,73.65
2017-06-28T20:07:38.342Z,73.27
2017-06-28T20:10:06.686Z,72.86
2017-06-28T20:12:35.548Z,72.96
2017-06-28T20:15:03.878Z,73.64
2017-06-28T20:17:32.252Z,74.90
2017-06-28T20:20:01.544Z,75.15
2017-06-28T20:22:30.459Z,75.82
2017-06-28T20:24:58.815Z,75.84
2017-06-28T20:27:27.495Z,76.45
2017-06-28T20:29:55.865Z,75.80
2017-06-28T20:32:24.189Z,76.01
2017-06-28T20:34:53.169Z,75.45
2017-06-28T20:37:21.518Z,74.73
2017-06-28T20:39:49.833Z,75.17
2017-06-28T20:42:18.604Z,75.08
2017-06-28T20:44:46.941Z,74.79
2017-06-28T20:47:15.313Z,74.56
2017-06-28T20:49:44.072Z,74.72
2017-06-28T20:52:12.465Z,75.42
2017-06-28T20:54:40.807Z,75.97
2017-06-28T20:57:09.838Z,76.58
2017-06-28T20:59:38.171Z,76.16
2017-06-28T21:02:06.520Z,75.54
2017-06-28T21:04:35.155Z,74.95
2017-06-28T21:07:03.478Z,74.80
2017-06-28T21:09:31.807Z,75.18
2017-06-28T21:12:01.206Z,75.07
2017-06-28T21:14:29.525Z,75.35
2017-06-28T21:16:57.866Z,75.53
2017-06-28T21:19:26.703Z,75.52
2017-06-28T21:21:55.066Z,76.36
2017-06-28T21:24:23.804Z,76.85
2017-06-28T21:26:52.745Z,77.09
2017-06-28T21:29:21.097Z,77.99
2017-06-28T21:31:49.450Z,77.75
2017-06-28T21:34:18.314Z,76.84
2017-06-28T21:36:46.656Z,77.06
2017-06-28T21:39:14.990Z,78.12
2017-06-28T21:41:44.023Z,79.05
2017-06-28T21:44:12.370Z,79.34
2017-06-28T21:46:41.493Z,78.40
2017-06-28T21:49:10.129Z,78.36
2017-06-28T21:51:38.504Z,77.89
2017-06-28T21:54:06.860Z,78.24
2017-06-28T21:56:35.524Z,78.65
2017-06-28T21:59:03.874Z,78.77
2017-06-28T22:01:32.229Z,79.27
2017-06-28T22:04:01.316Z,79.35
2017-06-28T22:06:29.654Z,79.16
2017-06-28T22:08:57.989Z,79.93
2017-06-28T22:11:26.664Z,80.63
2017-06-28T22:13:55.026Z,79.83
2017-06-28T22:16:23.383Z,80.48
2017-06-28T22:19:09.722Z,79.54
2017-06-28T22:21:38.088Z,80.45
2017-06-28T22:24:06.439Z,80.39
2017-06-28T22:26:35.181Z,79.98
2017-06-28T22:29:03.529Z,80.27
2017-06-28T22:31:31.872Z,80.86
2017-06-28T22:34:00.509Z,80.99
2017-06-28T22:36:28.877Z,80.71
2017-06-28T22:38:57.223Z,80.61
2017-06-28T22:41:26.071Z,80.44
2017-06-28T22:43:54.425Z,80.02
2017-06-28T22:46:22.778Z,80.17
2017-06-28T22:48:51.488Z,79.90
2017-06-28T22:51:19.811Z,79.81
2017-06-28T22:53:48.150Z,79.55
2017-06-28T22:56:16.942Z,79.24
2017-06-28T22:58:45.296Z,79.60
2017-06-28T23:01:13.633Z,78.72
2017-06-28T23:03:42.484Z,78.37
2017-06-28T23:06:10.827Z,78.27
2017-06-28T23:08:39.157Z,77.81
2017-06-28T23:11:08.025Z,77.79
2017-06-28T23:13:36.346Z,77.85
2017-06-28T23:16:04.690Z,77.97
2017-06-28T23:18:33.474Z,77.97
2017-06-28T23:21:02.578Z,78.00
2017-06-28T23:23:30.918Z,78.23
2017-06-28T23:26:00.528Z,78.21
2017-06-28T23:28:28.895Z,78.63
2017-06-28T23:30:58.025Z,78.80
2017-06-28T23:33:26.993Z,78.81
2017-06-28T23:35:55.381Z,78.66
2017-06-28T23:38:23.715Z,78.67
2017-06-28T23:40:52.386Z,78.75
2017-06-28T23:43:20.707Z,78.99
2017-06-28T23:45:49.063Z,78.78
2017-06-28T23:48:18.956Z,78.65
2017-06-28T23:50:47.295Z,79.02
2017-06-28T23:53:15.665Z,79.39
2017-06-28T23:55:44.360Z,79.65
2017-06-28T23:58:12.691Z,79.63
